Time;durP1;ratioP1;P1;durP2;ratioP2;P2;SDS_P1;SDS_P2;PMS_P1;PMS_P2;Temp;Humidity;BMP_temperature;BMP_pressure;BME280_temperature;BME280_humidity;BME280_pressure;Samples;Min_cycle;Max_cycle;Signal;HPM_P1;HPM_P2
2021/05/18 00:00:35;;;;;;;1.42;0.60;;;11.10;99.90;;;;;;5055494;28;20039;-72
2021/05/18 00:03:03;;;;;;;2.47;0.88;;;11.10;99.90;;;;;;5058969;28;20040;-73
2021/05/18 00:05:29;;;;;;;1.10;0.60;;;11.10;99.90;;;;;;5072240;28;20057;-72
2021/05/18 00:07:58;;;;;;;3.97;1.00;;;11.10;99.90;;;;;;5054089;28;20071;-74
2021/05/18 00:13:13;;;;;;;2.13;0.80;;;11.10;99.90;;;;;;5060230;28;20041;-72
2021/05/18 00:15:41;;;;;;;2.75;1.02;;;11.00;99.90;;;;;;5072424;28;20032;-72
2021/05/18 00:18:07;;;;;;;3.60;1.20;;;11.00;99.90;;;;;;5069716;28;20044;-73
2021/05/18 00:20:37;;;;;;;3.00;0.90;;;11.10;99.90;;;;;;5069340;28;20393;-73
2021/05/18 00:23:05;;;;;;;3.67;0.80;;;11.00;99.90;;;;;;5056649;28;20522;-72
2021/05/18 00:25:32;;;;;;;2.50;1.20;;;11.00;99.90;;;;;;5062494;28;20037;-72
2021/05/18 00:27:58;;;;;;;3.10;1.33;;;11.00;99.90;;;;;;5070182;28;20036;-73
2021/05/18 00:30:25;;;;;;;4.05;1.00;;;11.00;99.90;;;;;;5054759;28;20029;-73
2021/05/18 00:32:52;;;;;;;4.03;1.23;;;11.00;99.90;;;;;;5055266;28;20053;-73
2021/05/18 00:35:18;;;;;;;2.70;1.15;;;11.00;99.90;;;;;;5055189;28;20358;-72
2021/05/18 00:37:45;;;;;;;3.28;1.52;;;11.10;99.90;;;;;;5055085;28;20048;-72
2021/05/18 00:40:14;;;;;;;3.22;1.33;;;11.00;99.90;;;;;;5054664;28;20048;-78
2021/05/18 00:42:51;;;;;;;3.35;1.50;;;11.00;99.90;;;;;;5063609;28;20033;-72
2021/05/18 00:45:34;;;;;;;5.97;1.60;;;11.00;99.90;;;;;;5054757;28;20029;-71
2021/05/18 00:48:02;;;;;;;7.18;1.73;;;10.90;99.90;;;;;;5055061;28;20041;-72
2021/05/18 00:50:29;;;;;;;2.90;1.20;;;10.90;99.90;;;;;;5053926;28;20040;-72
2021/05/18 00:52:56;;;;;;;4.45;2.30;;;10.90;99.90;;;;;;5072458;28;20032;-73
2021/05/18 01:00:43;;;;;;;5.38;2.50;;;10.80;99.90;;;;;;5062524;28;20052;-71
2021/05/18 01:03:11;;;;;;;4.53;2.40;;;10.80;99.90;;;;;;5054683;28;20047;-72
2021/05/18 01:08:22;;;;;;;3.78;1.85;;;10.80;99.90;;;;;;5065626;28;20458;-72
2021/05/18 01:10:50;;;;;;;1.58;0.63;;;10.80;99.90;;;;;;5054749;28;20045;-72
2021/05/18 01:13:16;;;;;;;1.75;0.90;;;10.90;99.90;;;;;;5063958;28;20047;-72
2021/05/18 01:15:42;;;;;;;3.38;1.20;;;10.90;99.90;;;;;;5065193;28;20045;-72
2021/05/18 01:18:09;;;;;;;2.38;0.90;;;10.80;99.90;;;;;;5054569;28;20064;-72
2021/05/18 01:20:41;;;;;;;6.10;0.95;;;10.80;99.90;;;;;;5053894;28;20040;-72
2021/05/18 01:23:08;;;;;;;2.05;1.00;;;10.80;99.90;;;;;;5054364;28;20029;-72
2021/05/18 01:25:34;;;;;;;2.55;1.08;;;10.70;99.90;;;;;;5053863;28;20393;-72
2021/05/18 01:28:01;;;;;;;3.75;1.23;;;10.80;99.90;;;;;;5054429;28;20052;-72
2021/05/18 01:30:27;;;;;;;1.45;0.98;;;10.80;99.90;;;;;;5053784;28;20025;-71
2021/05/18 01:32:53;;;;;;;3.45;1.33;;;10.70;99.90;;;;;;5053969;28;20397;-72
2021/05/18 01:35:20;;;;;;;5.80;1.38;;;10.60;99.90;;;;;;5052795;28;20048;-76
2021/05/18 01:37:47;;;;;;;4.38;1.00;;;10.60;99.90;;;;;;5054467;28;20402;-71
2021/05/18 01:42:52;;;;;;;2.45;1.30;;;10.50;99.90;;;;;;5053146;28;20053;-72
2021/05/18 01:45:25;;;;;;;2.97;1.10;;;10.50;99.90;;;;;;5061533;28;20041;-75
2021/05/18 01:47:56;;;;;;;3.58;1.20;;;10.50;99.90;;;;;;5053205;28;20040;-72
2021/05/18 01:50:35;;;;;;;2.13;0.82;;;10.40;99.90;;;;;;5052909;28;20045;-73
2021/05/18 01:53:03;;;;;;;2.03;0.70;;;10.40;99.90;;;;;;5056516;28;20130;-73
2021/05/18 01:55:34;;;;;;;2.72;1.20;;;10.40;99.90;;;;;;5070876;28;20044;-72
2021/05/18 01:58:01;;;;;;;3.33;1.02;;;10.40;99.90;;;;;;5066442;28;20032;-72
2021/05/18 02:00:53;;;;;;;3.47;1.10;;;10.40;99.90;;;;;;5052772;28;20033;-72
2021/05/18 02:03:26;;;;;;;1.65;0.90;;;10.40;99.90;;;;;;5064037;28;20049;-73
2021/05/18 02:05:56;;;;;;;1.67;1.00;;;10.30;99.90;;;;;;5053555;28;20036;-72
2021/05/18 02:08:44;;;;;;;1.48;0.50;;;10.20;99.90;;;;;;5069140;28;20045;-72
2021/05/18 02:11:21;;;;;;;2.20;0.95;;;10.20;99.90;;;;;;5056113;28;20393;-73
2021/05/18 02:13:49;;;;;;;1.20;0.80;;;10.20;99.90;;;;;;5052473;28;20474;-72
2021/05/18 02:16:36;;;;;;;2.45;0.90;;;10.10;99.90;;;;;;5061548;28;20041;-74
2021/05/18 02:19:21;;;;;;;2.88;1.20;;;10.10;99.90;;;;;;5051850;28;20067;-74
2021/05/18 02:24:48;;;;;;;1.73;1.08;;;10.10;99.90;;;;;;5052579;28;20041;-73
2021/05/18 02:27:28;;;;;;;3.15;1.48;;;10.10;99.90;;;;;;5067351;28;20505;-73
2021/05/18 02:29:56;;;;;;;3.30;1.80;;;10.10;99.90;;;;;;5052786;28;20052;-73
2021/05/18 02:32:30;;;;;;;4.78;2.15;;;10.10;99.90;;;;;;5118040;27;20371;-73
2021/05/18 02:35:13;;;;;;;3.60;2.25;;;10.10;99.90;;;;;;5071545;28;20044;-73
2021/05/18 02:37:43;;;;;;;4.93;2.83;;;10.10;99.90;;;;;;5071028;28;20055;-72
2021/05/18 02:40:18;;;;;;;5.72;2.80;;;10.10;99.90;;;;;;5088370;28;20040;-73
2021/05/18 02:42:46;;;;;;;4.75;3.42;;;10.10;99.90;;;;;;5094709;28;20527;-73
2021/05/18 02:50:32;;;;;;;4.80;2.65;;;10.20;99.90;;;;;;5070894;28;20052;-73
2021/05/18 02:52:58;;;;;;;4.43;3.30;;;10.20;99.90;;;;;;5090445;28;20414;-73
2021/05/18 02:56:14;;;;;;;3.13;2.50;;;10.20;99.90;;;;;;5090874;28;20039;-77
2021/05/18 02:58:17;;;;;;;4.50;2.78;;;10.20;99.90;;;;;;5087083;28;20038;-74
2021/05/18 03:00:44;;;;;;;5.55;3.75;;;10.20;99.90;;;;;;5095664;28;20067;-74
2021/05/18 03:03:10;;;;;;;4.53;3.28;;;10.20;99.90;;;;;;5089445;28;20044;-74
2021/05/18 03:05:37;;;;;;;4.68;3.30;;;10.20;99.90;;;;;;5070397;28;20040;-74
2021/05/18 03:08:08;;;;;;;;;;;10.30;99.90;;;;;;5089914;28;20035;-73
2021/05/18 03:10:34;;;;;;;4.43;2.65;;;10.20;99.90;;;;;;5088788;28;20137;-76
2021/05/18 03:13:02;;;;;;;6.97;3.35;;;10.30;99.90;;;;;;5089319;28;20029;-73
2021/05/18 03:15:29;;;;;;;5.70;2.92;;;10.50;99.90;;;;;;5089216;28;20031;-74
2021/05/18 03:17:57;;;;;;;6.50;3.67;;;10.60;99.90;;;;;;5098456;28;20035;-74
2021/05/18 03:20:24;;;;;;;4.60;3.08;;;10.90;99.90;;;;;;5087745;28;20037;-73
2021/05/18 03:22:53;;;;;;;6.18;3.22;;;10.90;99.90;;;;;;5088046;28;20047;-73
2021/05/18 03:25:20;;;;;;;6.30;2.95;;;10.80;99.90;;;;;;5088812;28;20043;-73
2021/05/18 03:27:46;;;;;;;4.25;2.83;;;10.80;99.90;;;;;;5105914;28;20027;-74
2021/05/18 03:35:45;;;;;;;3.97;2.63;;;10.80;99.90;;;;;;5068417;28;20048;-73
2021/05/18 03:38:24;;;;;;;3.78;2.72;;;10.80;99.90;;;;;;5068171;28;20389;-73
2021/05/18 03:40:55;;;;;;;7.97;3.50;;;10.70;99.90;;;;;;5068129;28;20040;-74
2021/05/18 03:43:41;;;;;;;6.35;3.15;;;10.70;99.90;;;;;;5056849;28;20045;-73
2021/05/18 04:10:13;;;;;;;4.63;3.67;;;10.50;99.90;;;;;;5054515;28;20044;-72
2021/05/18 04:48:25;;;;;;;4.05;2.70;;;11.20;99.90;;;;;;5017339;28;20041;-72
2021/05/18 04:53:36;;;;;;;6.85;3.30;;;11.30;99.90;;;;;;5058931;28;20032;-73
2021/05/18 05:09:21;;;;;;;8.25;4.35;;;11.10;99.90;;;;;;5069079;28;20025;-72
2021/05/18 05:14:32;;;;;;;6.40;3.55;;;11.10;99.90;;;;;;5052235;28;20104;-73
2021/05/18 05:16:58;;;;;;;6.32;3.55;;;11.20;99.90;;;;;;5062909;28;20032;-72
2021/05/18 05:19:29;;;;;;;7.05;2.90;;;11.20;99.90;;;;;;5052876;28;20381;-72
2021/05/18 05:21:59;;;;;;;4.82;2.20;;;11.30;99.90;;;;;;5064839;28;20040;-72
2021/05/18 05:24:26;;;;;;;3.33;1.77;;;11.30;99.90;;;;;;5062175;28;20489;-72
2021/05/18 05:26:53;;;;;;;3.55;2.10;;;11.30;99.90;;;;;;5053252;28;20037;-72
2021/05/18 05:29:20;;;;;;;4.95;3.00;;;11.30;99.90;;;;;;5064970;28;20055;-73
2021/05/18 05:31:48;;;;;;;5.25;2.80;;;11.30;99.90;;;;;;5052747;28;20053;-72
2021/05/18 05:34:16;;;;;;;5.03;2.13;;;11.40;99.90;;;;;;5052888;28;20378;-72
2021/05/18 05:36:42;;;;;;;3.38;1.33;;;11.50;99.90;;;;;;5051790;28;20033;-72
2021/05/18 05:39:14;;;;;;;1.50;0.90;;;11.70;99.90;;;;;;5034645;28;20052;-72
2021/05/18 05:41:40;;;;;;;3.05;1.50;;;12.10;99.90;;;;;;5052566;28;20056;-76
2021/05/18 05:44:07;;;;;;;1.48;1.13;;;12.70;99.90;;;;;;5051801;28;20045;-72
2021/05/18 05:46:33;;;;;;;3.03;1.40;;;13.20;99.90;;;;;;5051278;28;20512;-72
2021/05/18 05:49:00;;;;;;;4.32;1.27;;;13.20;99.90;;;;;;5052948;28;20485;-73
2021/05/18 05:51:27;;;;;;;2.85;1.02;;;13.10;99.90;;;;;;5052608;28;20048;-72
2021/05/18 05:53:55;;;;;;;4.38;1.80;;;12.80;99.90;;;;;;5059389;28;20078;-72
2021/05/18 05:56:22;;;;;;;4.75;1.58;;;12.50;99.90;;;;;;5052336;28;20033;-73
2021/05/18 05:58:49;;;;;;;3.92;1.73;;;12.70;99.90;;;;;;5051646;28;20045;-72
2021/05/18 06:01:15;;;;;;;2.00;0.98;;;13.30;99.90;;;;;;5052288;28;20397;-73
2021/05/18 06:03:42;;;;;;;4.25;1.50;;;13.50;99.10;;;;;;5052450;28;20033;-72
2021/05/18 06:06:09;;;;;;;4.70;1.30;;;13.80;97.20;;;;;;5055893;28;20036;-72
2021/05/18 06:08:38;;;;;;;4.97;1.15;;;14.10;95.90;;;;;;5049523;28;20048;-72
2021/05/18 06:16:49;;;;;;;3.55;1.50;;;14.70;92.70;;;;;;5054069;28;20036;-73
2021/05/18 06:48:36;;;;;;;4.75;1.88;;;12.60;99.90;;;;;;5050517;28;20041;-81
2021/05/18 06:51:03;;;;;;;4.57;1.63;;;12.50;99.90;;;;;;5056940;28;20121;-81
2021/05/18 06:53:29;;;;;;;2.85;1.17;;;12.60;99.90;;;;;;5058333;28;20029;-82
2021/05/18 06:55:57;;;;;;;2.53;1.42;;;12.50;99.90;;;;;;5065240;28;20033;-82
2021/05/18 07:01:08;;;;;;;2.70;1.05;;;12.40;99.90;;;;;;5054621;28;20374;-79
2021/05/18 07:03:48;;;;;;;4.43;1.23;;;12.40;99.90;;;;;;5069297;28;20043;-78
2021/05/18 07:11:13;;;;;;;2.80;1.00;;;12.40;98.30;;;;;;5069203;28;20699;-79
2021/05/18 07:13:40;;;;;;;2.70;1.02;;;12.60;98.40;;;;;;5050652;28;20052;-79
2021/05/18 07:16:06;;;;;;;3.13;1.00;;;12.80;98.20;;;;;;5051506;28;20028;-80
2021/05/18 07:18:33;;;;;;;3.70;1.20;;;13.10;96.20;;;;;;5053908;28;20477;-79
2021/05/18 07:20:59;;;;;;;3.97;1.27;;;13.50;94.70;;;;;;5065010;28;20028;-79
2021/05/18 07:23:27;;;;;;;5.78;1.42;;;14.00;93.60;;;;;;5040493;28;20049;-79
2021/05/18 07:25:53;;;;;;;3.83;1.70;;;13.80;91.90;;;;;;5068905;28;20037;-79
2021/05/18 07:28:20;;;;;;;3.85;1.95;;;13.70;91.60;;;;;;5040797;28;20040;-79
2021/05/18 07:30:48;;;;;;;3.40;1.60;;;13.70;91.50;;;;;;5048825;28;20409;-79
2021/05/18 07:33:14;;;;;;;4.97;2.97;;;13.70;90.40;;;;;;5074928;28;20044;-79
2021/05/18 07:35:45;;;;;;;5.47;2.13;;;13.70;91.40;;;;;;5077153;28;20039;-80
2021/05/18 07:38:12;;;;;;;3.17;1.85;;;13.90;90.30;;;;;;5083821;28;20035;-80
2021/05/18 07:40:39;;;;;;;4.60;2.00;;;14.30;86.60;;;;;;5074589;28;20065;-80
2021/05/18 07:43:05;;;;;;;6.80;2.88;;;14.80;87.40;;;;;;5092443;28;20052;-80
2021/05/18 07:45:31;;;;;;;2.60;1.98;;;15.20;83.40;;;;;;5078370;28;20490;-81
2021/05/18 07:48:05;;;;;;;9.85;3.03;;;14.70;82.30;;;;;;5074920;28;20047;-80
2021/05/18 07:50:44;;;;;;;6.63;2.42;;;14.30;84.50;;;;;;5087595;28;20048;-80
2021/05/18 08:06:55;;;;;;;3.63;2.53;;;13.40;88.50;;;;;;5073481;28;20052;-81
2021/05/18 08:09:23;;;;;;;4.10;2.75;;;13.40;85.60;;;;;;5073517;28;20037;-80
2021/05/18 08:11:49;;;;;;;6.13;2.70;;;13.30;84.90;;;;;;5085771;28;20472;-81
2021/05/18 08:14:17;;;;;;;6.22;3.42;;;13.10;84.80;;;;;;5085737;28;20024;-82
2021/05/18 08:17:12;;;;;;;7.50;3.70;;;13.20;87.00;;;;;;5074172;28;20029;-81
2021/05/18 09:50:08;;;;;;;3.05;1.10;;;15.20;83.60;;;;;;5052846;28;20485;-82
2021/05/18 10:18:29;;;;;;;3.85;0.70;;;16.20;63.50;;;;;;5052697;28;20024;-86
2021/05/18 10:23:54;;;;;;;4.47;0.80;;;17.00;63.80;;;;;;5033935;28;20056;-84
2021/05/18 10:35:55;;;;;;;2.50;0.80;;;16.10;66.20;;;;;;5052389;28;20044;-83
2021/05/18 10:38:48;;;;;;;2.72;0.80;;;15.80;66.40;;;;;;5051898;28;20366;-83
2021/05/18 10:41:21;;;;;;;3.58;0.80;;;15.80;66.80;;;;;;5051837;28;20040;-84
2021/05/18 10:44:07;;;;;;;2.13;0.68;;;16.20;65.30;;;;;;5051729;28;20372;-79
2021/05/18 10:46:46;;;;;;;4.45;1.05;;;16.50;60.10;;;;;;5051724;28;20025;-83
2021/05/18 10:49:14;;;;;;;4.23;0.97;;;16.50;61.20;;;;;;5051820;28;20028;-81
2021/05/18 10:51:51;;;;;;;3.80;0.90;;;16.00;63.00;;;;;;5050759;28;20421;-81
2021/05/18 10:54:31;;;;;;;2.60;0.55;;;16.10;63.90;;;;;;5055884;28;20052;-84
2021/05/18 10:57:17;;;;;;;3.00;0.85;;;15.90;63.10;;;;;;5067395;28;20028;-85
2021/05/18 10:59:53;;;;;;;3.20;1.00;;;16.10;64.00;;;;;;5061382;28;20059;-85
2021/05/18 11:02:24;;;;;;;4.28;0.93;;;16.30;64.20;;;;;;5065428;28;20470;-83
2021/05/18 11:05:02;;;;;;;2.63;0.80;;;16.20;65.20;;;;;;5076047;28;20035;-85
2021/05/18 11:07:33;;;;;;;3.50;1.05;;;16.80;64.40;;;;;;5068453;28;20043;-86
2021/05/18 11:10:00;;;;;;;3.13;0.63;;;17.40;62.00;;;;;;5056210;28;20028;-86
2021/05/18 11:12:28;;;;;;;2.97;0.73;;;17.20;61.80;;;;;;5072376;28;20052;-84
2021/05/18 11:14:57;;;;;;;3.05;0.63;;;17.20;62.00;;;;;;5055139;28;20049;-85
2021/05/18 11:17:25;;;;;;;5.05;0.70;;;16.90;62.50;;;;;;5066686;28;20343;-82
2021/05/18 11:25:13;;;;;;;2.53;0.60;;;16.10;64.80;;;;;;5037832;28;20036;-84
2021/05/18 11:27:40;;;;;;;2.80;0.80;;;15.80;63.50;;;;;;5037283;28;20056;-84
2021/05/18 11:30:08;;;;;;;5.82;0.57;;;15.70;64.00;;;;;;5054929;28;20025;-82
2021/05/18 11:32:34;;;;;;;4.65;0.68;;;16.00;63.80;;;;;;5055066;28;20055;-84
2021/05/18 11:35:03;;;;;;;3.17;1.08;;;16.40;63.20;;;;;;5057680;28;20466;-85
2021/05/18 11:37:31;;;;;;;3.17;0.40;;;16.90;63.50;;;;;;5062751;28;20037;-85
2021/05/18 11:40:11;;;;;;;1.48;0.52;;;17.20;62.30;;;;;;5055317;28;20390;-83
2021/05/18 11:42:37;;;;;;;5.30;1.50;;;17.10;62.50;;;;;;5056692;28;20041;-83
2021/05/18 11:45:13;;;;;;;3.42;0.30;;;16.90;63.70;;;;;;5080350;28;20040;-81
2021/05/18 11:47:42;;;;;;;1.58;0.20;;;16.50;59.30;;;;;;5060597;28;20409;-82
2021/05/18 11:50:28;;;;;;;1.08;0.30;;;16.10;62.50;;;;;;5060422;28;20029;-83
2021/05/18 11:52:55;;;;;;;2.47;0.32;;;16.70;60.40;;;;;;5061653;28;20036;-81
2021/05/18 11:55:26;;;;;;;2.65;0.55;;;17.40;58.40;;;;;;5059990;28;20033;-82
2021/05/18 11:57:54;;;;;;;1.25;0.40;;;17.40;58.60;;;;;;5060232;28;20056;-81
2021/05/18 12:00:34;;;;;;;1.95;0.80;;;17.50;57.80;;;;;;5066456;28;20036;-81
2021/05/18 12:03:11;;;;;;;2.22;0.60;;;17.00;57.30;;;;;;5065687;28;20036;-82
2021/05/18 12:05:55;;;;;;;2.20;0.40;;;16.30;58.60;;;;;;5054808;28;20039;-81
2021/05/18 12:08:39;;;;;;;1.48;0.68;;;16.10;59.40;;;;;;5054791;28;20501;-82
2021/05/18 12:11:17;;;;;;;2.88;0.63;;;16.00;60.00;;;;;;5054660;28;20393;-82
2021/05/18 12:13:46;;;;;;;2.83;0.52;;;15.90;61.20;;;;;;5055214;28;20052;-84
2021/05/18 12:16:14;;;;;;;1.77;0.50;;;15.90;59.40;;;;;;5055328;28;20039;-82
2021/05/18 12:18:42;;;;;;;0.73;0.55;;;15.80;58.70;;;;;;5070580;28;20044;-79
2021/05/18 12:21:14;;;;;;;0.50;0.30;;;15.20;59.00;;;;;;5058266;28;20039;-84
2021/05/18 12:23:41;;;;;;;0.90;0.20;;;15.20;60.00;;;;;;5057538;28;20056;-82
2021/05/18 12:26:18;;;;;;;1.23;0.65;;;15.40;59.20;;;;;;5056617;28;20045;-84
2021/05/18 12:28:57;;;;;;;1.25;0.30;;;15.50;61.00;;;;;;5042521;28;20029;-83
2021/05/18 12:31:26;;;;;;;1.33;0.30;;;15.20;65.80;;;;;;5068779;28;20064;-84
2021/05/18 12:33:52;;;;;;;1.75;0.22;;;14.90;70.60;;;;;;5080174;28;20040;-81
2021/05/18 12:36:19;;;;;;;1.42;0.20;;;14.80;68.20;;;;;;5076548;28;20032;-82
2021/05/18 12:39:08;;;;;;;2.75;0.20;;;14.70;72.30;;;;;;5059113;28;20205;-83
2021/05/18 12:42:00;;;;;;;0.85;0.22;;;14.70;69.10;;;;;;5061363;28;20044;-82
2021/05/18 12:44:29;;;;;;;1.02;0.30;;;14.80;71.10;;;;;;5054604;28;20040;-80
2021/05/18 12:47:06;;;;;;;2.30;0.30;;;15.00;67.50;;;;;;5054788;28;20029;-84
2021/05/18 12:49:34;;;;;;;2.05;0.65;;;14.70;66.40;;;;;;5054544;28;20378;-83
2021/05/18 12:52:12;;;;;;;0.80;0.30;;;14.70;66.80;;;;;;5054935;28;20033;-83
2021/05/18 12:54:47;;;;;;;1.05;0.30;;;14.90;66.30;;;;;;5056112;28;20049;-83
2021/05/18 12:57:17;;;;;;;6.32;1.05;;;15.30;65.60;;;;;;5055654;28;20033;-85
2021/05/18 13:00:09;;;;;;;2.53;0.43;;;15.50;65.20;;;;;;5056876;28;20389;-85
2021/05/18 13:02:37;;;;;;;1.10;0.30;;;15.70;63.40;;;;;;5037371;28;20445;-84
2021/05/18 13:05:12;;;;;;;1.50;0.40;;;15.50;66.30;;;;;;5054814;28;20375;-84
2021/05/18 13:07:41;;;;;;;1.77;0.50;;;16.10;66.20;;;;;;5054672;28;20039;-84
2021/05/18 13:10:20;;;;;;;1.20;0.47;;;16.40;63.80;;;;;;5052558;28;20041;-81
2021/05/18 13:12:46;;;;;;;2.78;0.30;;;16.30;63.60;;;;;;5068754;28;20052;-84
2021/05/18 13:15:20;;;;;;;1.92;0.50;;;16.50;64.10;;;;;;5056970;28;20044;-81
2021/05/18 13:17:57;;;;;;;1.00;0.50;;;15.80;66.90;;;;;;5048578;28;20041;-83
2021/05/18 13:20:24;;;;;;;1.95;0.82;;;16.00;66.50;;;;;;5054321;28;20025;-82
2021/05/18 13:22:58;;;;;;;1.70;0.70;;;16.00;65.70;;;;;;5053708;28;20048;-83
2021/05/18 13:28:10;;;;;;;4.85;0.50;;;16.30;66.10;;;;;;5057780;28;20041;-82
2021/05/18 13:30:38;;;;;;;3.63;0.60;;;16.30;65.10;;;;;;5070460;28;20060;-81
2021/05/18 13:33:07;;;;;;;2.88;0.45;;;16.50;66.00;;;;;;5036338;28;20049;-81
2021/05/18 13:35:34;;;;;;;2.17;0.57;;;16.60;66.70;;;;;;5051379;28;20213;-82
2021/05/18 13:38:01;;;;;;;1.50;0.60;;;16.20;65.60;;;;;;5053302;28;20450;-84
2021/05/18 13:40:27;;;;;;;1.88;0.60;;;16.20;66.20;;;;;;5062602;28;20039;-84
2021/05/18 13:42:55;;;;;;;1.58;0.80;;;16.40;66.20;;;;;;5039171;28;20406;-79
2021/05/18 13:45:26;;;;;;;3.10;0.40;;;16.70;66.40;;;;;;5052965;28;20025;-82
2021/05/18 13:47:58;;;;;;;2.85;0.50;;;16.40;66.30;;;;;;5054533;28;20188;-81
2021/05/18 13:50:28;;;;;;;2.05;0.63;;;16.30;66.50;;;;;;5072355;28;20024;-81
2021/05/18 13:52:55;;;;;;;1.05;0.40;;;16.00;64.20;;;;;;5048196;28;20103;-81
2021/05/18 13:55:22;;;;;;;0.90;0.30;;;15.70;64.80;;;;;;5061935;28;20108;-82
2021/05/18 13:57:50;;;;;;;9.23;1.48;;;15.70;66.10;;;;;;5059717;28;20056;-83
2021/05/18 14:00:17;;;;;;;4.13;0.73;;;14.40;76.70;;;;;;5044488;28;20049;-80
2021/05/18 14:02:45;;;;;;;2.03;0.55;;;12.30;91.00;;;;;;5033537;28;20478;-84
2021/05/18 14:05:18;;;;;;;2.53;0.73;;;11.60;99.90;;;;;;5044655;28;20381;-84
2021/05/18 14:11:14;;;;;;;2.70;0.90;;;12.60;99.90;;;;;;5049943;28;20047;-80
2021/05/18 14:13:45;;;;;;;0.80;0.47;;;13.60;99.90;;;;;;5058415;28;20489;-84
2021/05/18 14:16:18;;;;;;;1.80;0.60;;;13.80;99.90;;;;;;5043348;28;20040;-84
2021/05/18 14:18:52;;;;;;;2.97;0.55;;;13.80;99.90;;;;;;5042730;28;20032;-83
2021/05/18 14:21:26;;;;;;;2.15;1.10;;;13.90;99.90;;;;;;5060173;28;20032;-82
2021/05/18 14:26:21;;;;;;;1.02;0.60;;;13.40;99.90;;;;;;5061439;28;20059;-81
2021/05/18 14:28:47;;;;;;;3.55;0.85;;;13.50;99.90;;;;;;5060366;28;20055;-80
2021/05/18 14:31:15;;;;;;;4.32;0.90;;;13.60;99.90;;;;;;5061613;28;20045;-82
2021/05/18 14:33:41;;;;;;;2.13;0.70;;;13.50;99.90;;;;;;5062051;28;20037;-81
2021/05/18 14:36:10;;;;;;;1.27;0.70;;;13.60;99.90;;;;;;5060075;28;20045;-82
2021/05/18 14:38:40;;;;;;;1.80;0.60;;;14.00;99.90;;;;;;5057296;28;20493;-79
2021/05/18 14:56:54;;;;;;;1.50;0.50;;;15.20;83.50;;;;;;5051134;28;20037;-79
2021/05/18 14:59:20;;;;;;;1.10;0.50;;;14.90;91.40;;;;;;5034632;28;20037;-80
2021/05/18 15:01:47;;;;;;;2.67;0.85;;;14.80;84.10;;;;;;5052052;28;20212;-81
2021/05/18 15:04:13;;;;;;;3.53;1.10;;;14.60;86.80;;;;;;5034778;28;20032;-79
2021/05/18 15:06:41;;;;;;;1.33;0.68;;;14.50;90.60;;;;;;5059244;28;20487;-79
2021/05/18 15:09:07;;;;;;;2.20;0.70;;;14.50;91.40;;;;;;5064448;28;20029;-79
2021/05/18 15:11:34;;;;;;;1.83;0.50;;;14.50;91.40;;;;;;5058306;28;20035;-79
2021/05/18 15:14:01;;;;;;;1.77;0.60;;;14.50;90.80;;;;;;5062897;28;20037;-79
2021/05/18 15:16:28;;;;;;;2.10;0.60;;;14.50;91.20;;;;;;5052312;28;20043;-79
2021/05/18 15:19:02;;;;;;;1.40;0.40;;;14.70;91.10;;;;;;5052523;28;20426;-81
2021/05/18 15:21:28;;;;;;;1.27;0.40;;;14.80;85.10;;;;;;5051551;28;20037;-79
2021/05/18 15:23:54;;;;;;;1.23;0.70;;;14.80;79.70;;;;;;5063173;28;20470;-81
2021/05/18 15:26:21;;;;;;;2.95;0.47;;;14.80;83.20;;;;;;5052952;28;20032;-80
2021/05/18 15:28:47;;;;;;;1.55;0.60;;;14.80;82.10;;;;;;5051880;28;20377;-80
2021/05/18 15:31:13;;;;;;;2.38;0.63;;;14.70;84.60;;;;;;5051993;28;20043;-80
2021/05/18 15:33:39;;;;;;;2.13;0.80;;;14.50;86.60;;;;;;5051199;28;20045;-81
2021/05/18 15:36:06;;;;;;;2.05;0.57;;;14.40;87.90;;;;;;5051745;28;20032;-79
2021/05/18 15:38:38;;;;;;;0.88;0.40;;;14.40;87.00;;;;;;5059130;28;20508;-81
2021/05/18 15:41:07;;;;;;;2.17;0.50;;;14.20;90.80;;;;;;5056892;28;20438;-80
2021/05/18 15:43:35;;;;;;;1.80;0.50;;;14.10;91.50;;;;;;5037501;28;20049;-79
2021/05/18 15:46:05;;;;;;;1.48;0.45;;;14.10;90.00;;;;;;5055884;28;20047;-80
2021/05/18 15:48:33;;;;;;;0.85;0.32;;;14.10;88.30;;;;;;5035543;28;20486;-81
2021/05/18 15:50:59;;;;;;;0.82;0.40;;;14.20;90.20;;;;;;5063637;28;20028;-82
2021/05/18 15:53:26;;;;;;;0.90;0.45;;;14.40;90.40;;;;;;5074720;28;20520;-82
2021/05/18 15:55:52;;;;;;;1.00;0.50;;;14.60;90.00;;;;;;5060254;28;20036;-81
2021/05/18 15:58:18;;;;;;;1.52;0.50;;;14.80;87.90;;;;;;5043959;28;20041;-83
2021/05/18 16:00:48;;;;;;;1.63;0.30;;;14.80;89.00;;;;;;5037040;28;20033;-82
2021/05/18 16:03:15;;;;;;;1.20;0.35;;;14.60;87.00;;;;;;5056486;28;20063;-82
2021/05/18 16:05:42;;;;;;;0.75;0.35;;;14.60;84.20;;;;;;5057616;28;20382;-81
2021/05/18 16:08:58;;;;;;;0.73;0.32;;;14.50;85.10;;;;;;5037434;28;20033;-79
2021/05/18 16:11:05;;;;;;;1.73;0.45;;;14.60;87.00;;;;;;5056347;28;20410;-80
2021/05/18 16:13:33;;;;;;;1.42;0.40;;;14.30;88.10;;;;;;5044995;28;20513;-81
2021/05/18 16:16:15;;;;;;;2.42;1.13;;;14.30;90.40;;;;;;5045492;28;20029;-81
2021/05/18 16:18:42;;;;;;;1.33;0.45;;;14.10;90.50;;;;;;5070774;28;20048;-81
2021/05/18 16:21:10;;;;;;;1.30;0.50;;;14.20;90.30;;;;;;5055311;28;20366;-82
2021/05/18 16:23:40;;;;;;;0.77;0.30;;;14.20;90.80;;;;;;5054029;28;20044;-82
2021/05/18 16:26:08;;;;;;;;;;;14.10;90.40;;;;;;5055150;28;20056;-80
2021/05/18 16:28:35;;;;;;;3.03;0.47;;;13.80;90.10;;;;;;5054398;28;20460;-80
2021/05/18 16:31:02;;;;;;;1.50;0.60;;;13.70;90.20;;;;;;5054778;28;20055;-81
2021/05/18 16:33:29;;;;;;;1.45;0.60;;;13.70;90.70;;;;;;5058001;28;20346;-81
2021/05/18 16:35:56;;;;;;;1.27;0.90;;;13.60;91.50;;;;;;5069900;28;20045;-81
2021/05/18 16:38:23;;;;;;;0.95;0.40;;;13.70;91.60;;;;;;5067059;28;20355;-80
2021/05/18 16:40:51;;;;;;;1.83;0.40;;;13.50;91.20;;;;;;5073210;28;20037;-83
2021/05/18 16:43:19;;;;;;;1.38;0.68;;;13.40;92.30;;;;;;5060275;28;20039;-81
2021/05/18 16:45:46;;;;;;;1.33;0.38;;;13.40;92.10;;;;;;5053846;28;20430;-81
2021/05/18 16:48:12;;;;;;;1.63;0.68;;;13.30;93.40;;;;;;5054489;28;20037;-80
2021/05/18 16:50:39;;;;;;;1.23;0.60;;;13.40;94.30;;;;;;5065802;28;20959;-80
2021/05/18 16:53:05;;;;;;;1.10;0.60;;;13.40;95.40;;;;;;5054171;28;20048;-78
2021/05/18 16:55:32;;;;;;;1.33;0.60;;;13.30;96.40;;;;;;5054069;28;20041;-80
2021/05/18 16:57:58;;;;;;;7.13;0.60;;;13.10;93.60;;;;;;5054817;28;20477;-80
2021/05/18 17:00:25;;;;;;;3.03;0.85;;;12.40;92.90;;;;;;5036469;28;20478;-83
2021/05/18 17:02:51;;;;;;;2.83;0.65;;;11.50;99.90;;;;;;5053255;28;20039;-79
2021/05/18 17:05:18;;;;;;;2.35;0.50;;;10.80;99.90;;;;;;5053990;28;20588;-80
2021/05/18 17:07:44;;;;;;;2.53;0.52;;;10.00;99.90;;;;;;5051274;28;20045;-81
2021/05/18 17:10:11;;;;;;;5.38;1.73;;;9.40;99.90;;;;;;5061209;28;20040;-78
2021/05/18 17:12:37;;;;;;;2.63;1.00;;;9.20;99.90;;;;;;5065643;28;20040;-78
2021/05/18 17:15:06;;;;;;;2.03;0.80;;;9.20;99.90;;;;;;5062597;28;20033;-79
2021/05/18 17:17:32;;;;;;;4.53;1.40;;;9.20;99.90;;;;;;5053455;28;20059;-78
2021/05/18 17:19:59;;;;;;;6.28;1.70;;;9.20;99.90;;;;;;5053623;28;20037;-78
2021/05/18 17:22:26;;;;;;;2.13;1.25;;;9.50;99.90;;;;;;5053624;28;20037;-78
2021/05/18 17:24:53;;;;;;;3.70;2.22;;;9.60;99.90;;;;;;5057716;28;20301;-79
2021/05/18 17:27:20;;;;;;;6.00;2.03;;;9.70;99.90;;;;;;5055659;28;20047;-78
2021/05/18 17:29:46;;;;;;;5.07;2.65;;;9.90;99.90;;;;;;5061607;28;20040;-78
2021/05/18 17:32:13;;;;;;;12.45;9.73;;;10.00;99.90;;;;;;5062247;28;20041;-78
2021/05/18 17:34:39;;;;;;;8.13;6.72;;;9.90;99.90;;;;;;5051778;28;20033;-78
2021/05/18 17:37:08;;;;;;;3.63;1.73;;;10.00;99.90;;;;;;5052344;28;20037;-78
2021/05/18 17:39:36;;;;;;;4.25;1.45;;;9.80;99.90;;;;;;5050864;28;20044;-78
2021/05/18 17:42:04;;;;;;;2.55;1.27;;;9.60;99.90;;;;;;5052118;28;20031;-78
2021/05/18 17:44:31;;;;;;;4.30;1.65;;;9.60;99.90;;;;;;5052510;28;20037;-78
2021/05/18 17:46:58;;;;;;;4.38;1.60;;;9.80;99.90;;;;;;5051108;28;20367;-77
2021/05/18 17:49:25;;;;;;;3.20;1.42;;;9.90;99.90;;;;;;5034388;28;20037;-77
2021/05/18 17:51:51;;;;;;;3.75;1.50;;;9.80;99.90;;;;;;5052110;28;20033;-77
2021/05/18 17:54:22;;;;;;;3.53;1.83;;;9.90;99.90;;;;;;5053210;28;20045;-78
2021/05/18 17:56:49;;;;;;;6.85;2.80;;;10.00;99.90;;;;;;5051669;28;20043;-77
2021/05/18 17:59:15;;;;;;;3.72;2.45;;;10.20;99.90;;;;;;5056735;28;20032;-77
2021/05/18 18:01:41;;;;;;;4.32;3.60;;;10.30;99.90;;;;;;5062832;28;20036;-77
2021/05/18 18:04:08;;;;;;;7.05;4.40;;;10.50;99.90;;;;;;5055651;28;20032;-77
2021/05/18 18:06:34;;;;;;;7.47;3.90;;;10.70;99.90;;;;;;5058108;28;20036;-77
2021/05/18 18:09:01;;;;;;;6.88;4.03;;;10.90;99.90;;;;;;5065490;28;20489;-77
2021/05/18 18:11:27;;;;;;;5.78;3.65;;;11.00;99.90;;;;;;5055501;28;20038;-76
2021/05/18 18:13:54;;;;;;;8.13;4.15;;;11.10;99.90;;;;;;5057546;28;20574;-76
2021/05/18 18:16:21;;;;;;;7.50;4.40;;;11.10;99.90;;;;;;5052078;28;20028;-77
2021/05/18 18:18:49;;;;;;;6.30;3.75;;;11.20;99.90;;;;;;5060901;28;20064;-76
2021/05/18 18:21:17;;;;;;;7.90;4.45;;;11.30;99.90;;;;;;5061658;28;20040;-77